Time;durP1;ratioP1;P1;durP2;ratioP2;P2;SDS_P1;SDS_P2;PMS_P1;PMS_P2;Temp;Humidity;BMP_temperature;BMP_pressure;BME280_temperature;BME280_humidity;BME280_pressure;Samples;Min_cycle;Max_cycle;Signal;HPM_P1;HPM_P2
2023/04/03 00:56:11;;;;;;;6.80;4.40;;;;;;;25.58;29.30;99877.39;109644;1260;71473;-88
2023/04/03 03:04:58;;;;;;;6.10;4.90;;;;;;;25.73;28.73;99919.77;109677;1260;74123;-88
2023/04/03 03:07:23;;;;;;;6.10;5.40;;;;;;;25.73;28.75;99927.64;109597;1259;67617;-86
2023/04/03 03:09:49;;;;;;;5.90;5.30;;;;;;;25.70;28.52;99925.40;109605;1259;66899;-88
2023/04/03 03:12:15;;;;;;;6.50;4.80;;;;;;;25.65;28.57;99925.48;109568;1259;67647;-86
2023/04/03 03:14:42;;;;;;;5.70;4.50;;;;;;;25.62;28.70;99921.50;109622;1259;68076;-86
2023/04/03 03:17:08;;;;;;;7.90;5.00;;;;;;;25.60;28.65;99919.91;109594;1259;67637;-86
2023/04/03 03:19:33;;;;;;;10.20;5.60;;;;;;;25.57;29.02;99914.55;109560;1259;66805;-86
2023/04/03 03:21:59;;;;;;;14.60;6.40;;;;;;;25.55;29.05;99916.42;109589;1259;66904;-86
2023/04/03 03:26:58;;;;;;;10.70;7.00;;;;;;;25.41;29.11;99924.30;109548;1259;74369;-86
2023/04/03 03:29:23;;;;;;;12.60;7.20;;;;;;;25.27;29.10;99923.75;109533;1259;67597;-86
2023/04/03 03:31:49;;;;;;;11.00;8.00;;;;;;;25.07;29.16;99930.86;109542;1259;67647;-86
2023/04/03 03:34:14;;;;;;;9.40;7.80;;;;;;;24.85;29.13;99931.36;109599;1259;67648;-87
2023/04/03 03:36:40;;;;;;;9.30;8.00;;;;;;;24.66;29.19;99932.77;109622;1259;67668;-86
2023/04/03 03:39:06;;;;;;;8.70;7.70;;;;;;;24.48;29.39;99934.48;109591;1259;67636;-86
2023/04/03 03:41:31;;;;;;;8.90;7.90;;;;;;;24.28;29.46;99932.95;109397;1260;67538;-86
2023/04/03 03:43:57;;;;;;;13.90;12.30;;;;;;;24.08;29.56;99929.05;109623;1259;67625;-86
2023/04/03 03:46:22;;;;;;;13.60;12.20;;;;;;;23.97;29.63;99934.02;109616;1259;66896;-86
2023/04/03 03:48:48;;;;;;;14.50;12.90;;;;;;;23.96;29.79;99937.23;109601;1259;67553;-86
2023/04/03 03:51:13;;;;;;;14.70;13.10;;;;;;;23.98;29.81;99937.70;109521;1260;67189;-88
2023/04/03 03:53:39;;;;;;;16.40;14.00;;;;;;;23.99;29.80;99941.70;109588;1260;67474;-89
2023/04/03 03:56:08;;;;;;;22.30;19.20;;;;;;;24.02;29.88;99943.20;109655;1259;67410;-89
2023/04/03 03:58:34;;;;;;;16.90;15.10;;;;;;;24.03;29.91;99945.92;109576;1260;74171;-88
2023/04/03 04:01:06;;;;;;;16.20;13.80;;;;;;;24.05;29.78;99951.05;109546;1259;67263;-89
2023/04/03 04:03:35;;;;;;;14.50;11.60;;;;;;;24.06;29.95;99950.45;109482;1260;67528;-87
2023/04/03 04:06:01;;;;;;;11.10;9.70;;;;;;;24.08;29.94;99947.52;109556;1259;67579;-89
2023/04/03 04:08:29;;;;;;;10.10;9.00;;;;;;;24.11;29.79;99947.41;109626;1259;67367;-89
2023/04/03 04:10:54;;;;;;;9.80;8.30;;;;;;;24.14;29.75;99947.09;109788;1259;74343;-89
2023/04/03 04:13:20;;;;;;;9.60;7.60;;;;;;;24.20;29.89;99949.90;108894;1260;510173;-85
2023/04/03 04:15:45;;;;;;;10.30;7.30;;;;;;;24.25;29.66;99957.86;109501;1259;67608;-85
2023/04/03 04:18:11;;;;;;;7.70;6.90;;;;;;;24.28;29.76;99953.16;109591;1259;67520;-88
2023/04/03 04:20:45;;;;;;;8.50;6.30;;;;;;;24.33;29.50;99956.14;109717;1260;66866;-87
2023/04/03 04:23:11;;;;;;;9.60;7.10;;;;;;;24.36;29.54;99955.50;109719;1259;67492;-88
2023/04/03 04:25:37;;;;;;;8.00;6.60;;;;;;;24.40;29.66;99959.02;109573;1260;67926;-87
2023/04/03 04:28:02;;;;;;;10.10;6.50;;;;;;;24.43;29.30;99960.90;109449;1259;67589;-88
2023/04/03 04:30:28;;;;;;;7.20;5.60;;;;;;;24.45;29.68;99970.61;109634;1263;67529;-88
2023/04/03 04:32:53;;;;;;;9.00;6.10;;;;;;;24.47;29.59;99974.14;109726;1259;66944;-88
2023/04/03 04:35:19;;;;;;;7.30;5.90;;;;;;;24.49;29.39;99976.00;109632;1260;67681;-88
2023/04/03 04:37:44;;;;;;;6.60;5.00;;;;;;;24.50;29.53;99975.00;109552;1260;67856;-88
2023/04/03 04:40:10;;;;;;;6.50;5.10;;;;;;;24.51;29.57;99977.09;109753;1260;66909;-88
2023/04/03 04:42:36;;;;;;;8.80;5.10;;;;;;;24.53;29.45;99979.25;109679;1259;67744;-89
2023/04/03 04:50:23;;;;;;;6.70;5.30;;;;;;;24.55;29.44;99983.42;109619;1260;66885;-88
2023/04/03 04:52:52;;;;;;;8.00;5.50;;;;;;;24.55;29.44;99976.68;109529;1260;67069;-90
2023/04/03 05:01:01;;;;;;;11.10;5.10;;;;;;;24.52;29.51;99972.13;109601;1260;67009;-88
2023/04/03 05:06:24;;;;;;;9.50;4.90;;;;;;;24.50;29.38;99966.96;109721;1260;67552;-87
2023/04/03 05:09:22;;;;;;;7.10;5.20;;;;;;;24.50;29.54;99967.64;109507;1261;71742;-90
2023/04/03 05:37:42;;;;;;;5.70;4.40;;;;;;;24.55;29.64;99983.88;109575;1260;74402;-87
2023/04/03 05:40:10;;;;;;;7.30;5.10;;;;;;;24.59;29.48;99988.48;109387;1260;67054;-89
2023/04/03 05:42:38;;;;;;;9.00;7.30;;;;;;;24.62;29.46;99994.89;109367;1260;67700;-87
2023/04/03 05:45:10;;;;;;;12.70;10.50;;;;;;;24.65;29.64;100003.83;109601;1259;66958;31
2023/04/03 05:47:36;;;;;;;12.90;11.20;;;;;;;24.67;29.62;100006.15;109346;1260;74377;-89
2023/04/03 05:50:01;;;;;;;12.20;9.80;;;;;;;24.69;29.63;100006.97;109356;1260;67568;-87
2023/04/03 05:52:28;;;;;;;11.10;9.00;;;;;;;24.72;29.62;100010.00;109327;1260;67584;-86
2023/04/03 05:55:11;;;;;;;12.20;8.60;;;;;;;24.75;29.37;100011.08;109338;1260;67057;-88
2023/04/03 06:12:30;;;;;;;9.50;5.10;;;;;;;24.71;29.42;100051.75;109594;1259;66983;-89
2023/04/03 06:46:56;;;;;;;6.40;3.80;;;;;;;24.86;29.28;100091.62;109501;1259;73156;-90
2023/04/03 06:55:21;;;;;;;10.40;3.90;;;;;;;24.90;28.94;100101.56;109576;1259;66129;-90
2023/04/03 06:57:51;;;;;;;9.90;3.70;;;;;;;24.92;28.91;100107.27;109446;1260;67053;-89
